sensor_id;sensor_type;location;lat;lon;timestamp;P1;durP1;ratioP1;P2;durP2;ratioP2
4001;SDS011;2015;48.670;9.060;2023-06-10T00:00:22;13.87;;;12.87;;
4001;SDS011;2015;48.670;9.060;2023-06-10T00:02:54;14.73;;;13.52;;
4001;SDS011;2015;48.670;9.060;2023-06-10T00:05:26;17.20;;;15.70;;
4001;SDS011;2015;48.670;9.060;2023-06-10T00:08:01;20.23;;;18.60;;
4001;SDS011;2015;48.670;9.060;2023-06-10T00:10:45;13.97;;;12.87;;
4001;SDS011;2015;48.670;9.060;2023-06-10T00:13:17;17.60;;;16.20;;
4001;SDS011;2015;48.670;9.060;2023-06-10T00:15:49;15.70;;;14.50;;
4001;SDS011;2015;48.670;9.060;2023-06-10T00:18:21;16.60;;;15.10;;
4001;SDS011;2015;48.670;9.060;2023-06-10T00:20:53;16.63;;;15.23;;
4001;SDS011;2015;48.670;9.060;2023-06-10T00:23:26;17.07;;;15.53;;
4001;SDS011;2015;48.670;9.060;2023-06-10T00:26:00;16.50;;;15.00;;
4001;SDS011;2015;48.670;9.060;2023-06-10T00:28:32;18.20;;;16.83;;
4001;SDS011;2015;48.670;9.060;2023-06-10T00:31:04;17.13;;;15.73;;
4001;SDS011;2015;48.670;9.060;2023-06-10T00:33:36;17.30;;;15.80;;
4001;SDS011;2015;48.670;9.060;2023-06-10T00:36:08;15.73;;;14.40;;
4001;SDS011;2015;48.670;9.060;2023-06-10T00:38:39;16.20;;;14.70;;
4001;SDS011;2015;48.670;9.060;2023-06-10T00:41:12;17.40;;;15.90;;
4001;SDS011;2015;48.670;9.060;2023-06-10T00:43:43;16.90;;;15.57;;
4001;SDS011;2015;48.670;9.060;2023-06-10T00:46:15;17.03;;;15.70;;
4001;SDS011;2015;48.670;9.060;2023-06-10T00:48:48;16.33;;;15.00;;
4001;SDS011;2015;48.670;9.060;2023-06-10T00:51:20;20.30;;;18.70;;
4001;SDS011;2015;48.670;9.060;2023-06-10T00:53:53;15.53;;;14.37;;
4001;SDS011;2015;48.670;9.060;2023-06-10T00:56:25;13.30;;;12.20;;
4001;SDS011;2015;48.670;9.060;2023-06-10T00:58:58;14.83;;;13.73;;
4001;SDS011;2015;48.670;9.060;2023-06-10T01:01:30;15.50;;;14.20;;
4001;SDS011;2015;48.670;9.060;2023-06-10T01:04:03;20.43;;;13.37;;
4001;SDS011;2015;48.670;9.060;2023-06-10T01:06:54;14.20;;;12.82;;
4001;SDS011;2015;48.670;9.060;2023-06-10T01:15:20;16.33;;;15.00;;
4001;SDS011;2015;48.670;9.060;2023-06-10T01:18:14;15.57;;;13.90;;
4001;SDS011;2015;48.670;9.060;2023-06-10T01:20:47;13.53;;;12.33;;
4001;SDS011;2015;48.670;9.060;2023-06-10T01:23:22;14.43;;;12.97;;
4001;SDS011;2015;48.670;9.060;2023-06-10T01:25:59;12.60;;;11.60;;
4001;SDS011;2015;48.670;9.060;2023-06-10T01:28:47;12.43;;;11.53;;
4001;SDS011;2015;48.670;9.060;2023-06-10T01:31:41;12.23;;;11.17;;
4001;SDS011;2015;48.670;9.060;2023-06-10T01:34:21;12.57;;;11.63;;
4001;SDS011;2015;48.670;9.060;2023-06-10T01:36:55;14.03;;;12.60;;
4001;SDS011;2015;48.670;9.060;2023-06-10T01:39:29;12.50;;;11.50;;
4001;SDS011;2015;48.670;9.060;2023-06-10T01:42:02;12.60;;;11.60;;
4001;SDS011;2015;48.670;9.060;2023-06-10T01:44:34;13.27;;;11.90;;
4001;SDS011;2015;48.670;9.060;2023-06-10T01:47:06;13.07;;;11.97;;
4001;SDS011;2015;48.670;9.060;2023-06-10T01:49:38;17.83;;;12.23;;
4001;SDS011;2015;48.670;9.060;2023-06-10T01:52:10;11.80;;;10.70;;
4001;SDS011;2015;48.670;9.060;2023-06-10T01:54:41;12.70;;;11.60;;
4001;SDS011;2015;48.670;9.060;2023-06-10T01:57:13;12.05;;;11.07;;
4001;SDS011;2015;48.670;9.060;2023-06-10T01:59:45;13.33;;;12.23;;
4001;SDS011;2015;48.670;9.060;2023-06-10T02:02:17;13.23;;;11.83;;
4001;SDS011;2015;48.670;9.060;2023-06-10T02:04:49;14.53;;;13.10;;
4001;SDS011;2015;48.670;9.060;2023-06-10T02:07:21;11.70;;;10.80;;
4001;SDS011;2015;48.670;9.060;2023-06-10T02:09:53;12.70;;;11.57;;
4001;SDS011;2015;48.670;9.060;2023-06-10T02:12:25;12.70;;;11.60;;
4001;SDS011;2015;48.670;9.060;2023-06-10T02:14:56;12.53;;;11.53;;
4001;SDS011;2015;48.670;9.060;2023-06-10T02:17:29;12.30;;;11.20;;
4001;SDS011;2015;48.670;9.060;2023-06-10T02:20:01;12.10;;;11.20;;
4001;SDS011;2015;48.670;9.060;2023-06-10T02:22:35;11.90;;;10.83;;
4001;SDS011;2015;48.670;9.060;2023-06-10T02:25:07;12.77;;;11.57;;
4001;SDS011;2015;48.670;9.060;2023-06-10T02:27:40;13.23;;;11.93;;
4001;SDS011;2015;48.670;9.060;2023-06-10T02:30:12;12.63;;;11.33;;
4001;SDS011;2015;48.670;9.060;2023-06-10T02:32:44;13.10;;;12.10;;
4001;SDS011;2015;48.670;9.060;2023-06-10T02:35:19;13.57;;;12.40;;
4001;SDS011;2015;48.670;9.060;2023-06-10T02:37:51;12.30;;;11.23;;
4001;SDS011;2015;48.670;9.060;2023-06-10T02:40:23;12.67;;;11.67;;
4001;SDS011;2015;48.670;9.060;2023-06-10T02:42:55;12.73;;;11.63;;
4001;SDS011;2015;48.670;9.060;2023-06-10T02:45:26;11.93;;;11.03;;
4001;SDS011;2015;48.670;9.060;2023-06-10T02:47:58;13.40;;;12.30;;
4001;SDS011;2015;48.670;9.060;2023-06-10T02:50:30;12.80;;;11.70;;
4001;SDS011;2015;48.670;9.060;2023-06-10T02:53:02;13.50;;;12.20;;
4001;SDS011;2015;48.670;9.060;2023-06-10T02:55:34;13.07;;;11.87;;
4001;SDS011;2015;48.670;9.060;2023-06-10T02:58:06;14.13;;;12.63;;
4001;SDS011;2015;48.670;9.060;2023-06-10T03:00:38;13.20;;;12.00;;
4001;SDS011;2015;48.670;9.060;2023-06-10T03:03:12;14.40;;;12.33;;
4001;SDS011;2015;48.670;9.060;2023-06-10T03:05:44;13.43;;;12.40;;
4001;SDS011;2015;48.670;9.060;2023-06-10T03:08:16;13.07;;;12.03;;
4001;SDS011;2015;48.670;9.060;2023-06-10T03:10:47;12.67;;;11.60;;
4001;SDS011;2015;48.670;9.060;2023-06-10T03:13:19;13.40;;;12.30;;
4001;SDS011;2015;48.670;9.060;2023-06-10T03:15:52;13.80;;;12.60;;
4001;SDS011;2015;48.670;9.060;2023-06-10T03:18:25;13.50;;;12.50;;
4001;SDS011;2015;48.670;9.060;2023-06-10T03:20:58;13.80;;;12.67;;
4001;SDS011;2015;48.670;9.060;2023-06-10T03:23:30;14.17;;;12.97;;
4001;SDS011;2015;48.670;9.060;2023-06-10T03:26:02;14.57;;;13.27;;
4001;SDS011;2015;48.670;9.060;2023-06-10T03:28:36;15.80;;;14.30;;
4001;SDS011;2015;48.670;9.060;2023-06-10T03:31:07;14.83;;;13.43;;
4001;SDS011;2015;48.670;9.060;2023-06-10T03:33:39;14.57;;;13.27;;
4001;SDS011;2015;48.670;9.060;2023-06-10T03:36:11;14.43;;;13.23;;
4001;SDS011;2015;48.670;9.060;2023-06-10T03:38:43;14.23;;;12.83;;
4001;SDS011;2015;48.670;9.060;2023-06-10T03:41:15;14.73;;;13.43;;
4001;SDS011;2015;48.670;9.060;2023-06-10T03:43:47;14.20;;;13.00;;
4001;SDS011;2015;48.670;9.060;2023-06-10T03:46:19;13.67;;;12.37;;
4001;SDS011;2015;48.670;9.060;2023-06-10T03:48:51;14.80;;;13.50;;
4001;SDS011;2015;48.670;9.060;2023-06-10T03:51:22;14.60;;;13.40;;
4001;SDS011;2015;48.670;9.060;2023-06-10T03:53:54;14.07;;;12.87;;
4001;SDS011;2015;48.670;9.060;2023-06-10T03:56:26;14.20;;;13.00;;
4001;SDS011;2015;48.670;9.060;2023-06-10T03:58:59;13.50;;;12.40;;
4001;SDS011;2015;48.670;9.060;2023-06-10T04:01:31;15.40;;;14.00;;
4001;SDS011;2015;48.670;9.060;2023-06-10T04:04:04;13.93;;;12.73;;
4001;SDS011;2015;48.670;9.060;2023-06-10T04:06:36;13.23;;;12.10;;
4001;SDS011;2015;48.670;9.060;2023-06-10T04:09:08;13.33;;;12.20;;
4001;SDS011;2015;48.670;9.060;2023-06-10T04:11:41;14.97;;;12.37;;
4001;SDS011;2015;48.670;9.060;2023-06-10T04:14:12;13.50;;;12.43;;
4001;SDS011;2015;48.670;9.060;2023-06-10T04:16:44;13.90;;;12.70;;
4001;SDS011;2015;48.670;9.060;2023-06-10T04:19:16;12.63;;;11.63;;
4001;SDS011;2015;48.670;9.060;2023-06-10T04:21:48;12.30;;;11.30;;
4001;SDS011;2015;48.670;9.060;2023-06-10T04:24:20;14.40;;;13.00;;
4001;SDS011;2015;48.670;9.060;2023-06-10T04:26:52;13.27;;;12.17;;
4001;SDS011;2015;48.670;9.060;2023-06-10T04:29:23;12.33;;;11.30;;
4001;SDS011;2015;48.670;9.060;2023-06-10T04:31:55;13.70;;;12.50;;
4001;SDS011;2015;48.670;9.060;2023-06-10T04:34:27;12.80;;;11.60;;
4001;SDS011;2015;48.670;9.060;2023-06-10T04:36:59;12.47;;;11.57;;
4001;SDS011;2015;48.670;9.060;2023-06-10T04:39:31;12.93;;;11.73;;
4001;SDS011;2015;48.670;9.060;2023-06-10T04:42:03;13.10;;;12.00;;
4001;SDS011;2015;48.670;9.060;2023-06-10T04:44:36;12.77;;;11.60;;
4001;SDS011;2015;48.670;9.060;2023-06-10T04:47:08;12.73;;;11.77;;
4001;SDS011;2015;48.670;9.060;2023-06-10T04:49:40;11.83;;;11.03;;
4001;SDS011;2015;48.670;9.060;2023-06-10T04:52:12;11.87;;;10.87;;
4001;SDS011;2015;48.670;9.060;2023-06-10T04:54:49;12.60;;;11.43;;
4001;SDS011;2015;48.670;9.060;2023-06-10T04:57:21;12.17;;;11.07;;
4001;SDS011;2015;48.670;9.060;2023-06-10T04:59:53;11.13;;;10.33;;
4001;SDS011;2015;48.670;9.060;2023-06-10T05:02:24;10.83;;;10.03;;
4001;SDS011;2015;48.670;9.060;2023-06-10T05:04:56;13.40;;;12.40;;
4001;SDS011;2015;48.670;9.060;2023-06-10T05:07:29;13.13;;;12.03;;
4001;SDS011;2015;48.670;9.060;2023-06-10T05:10:00;11.30;;;10.40;;
4001;SDS011;2015;48.670;9.060;2023-06-10T05:12:32;11.60;;;10.50;;
4001;SDS011;2015;48.670;9.060;2023-06-10T05:15:05;10.57;;;9.67;;
4001;SDS011;2015;48.670;9.060;2023-06-10T05:17:38;11.63;;;10.60;;
4001;SDS011;2015;48.670;9.060;2023-06-10T05:20:10;10.80;;;9.33;;
4001;SDS011;2015;48.670;9.060;2023-06-10T05:22:42;11.00;;;10.10;;
4001;SDS011;2015;48.670;9.060;2023-06-10T05:25:14;11.30;;;10.07;;
4001;SDS011;2015;48.670;9.060;2023-06-10T05:27:46;11.23;;;10.17;;
4001;SDS011;2015;48.670;9.060;2023-06-10T05:30:18;10.30;;;9.43;;
4001;SDS011;2015;48.670;9.060;2023-06-10T05:32:50;10.80;;;9.93;;
4001;SDS011;2015;48.670;9.060;2023-06-10T05:35:22;10.57;;;9.70;;
4001;SDS011;2015;48.670;9.060;2023-06-10T05:37:54;9.77;;;9.07;;
4001;SDS011;2015;48.670;9.060;2023-06-10T05:40:26;10.07;;;9.17;;
4001;SDS011;2015;48.670;9.060;2023-06-10T05:42:58;10.02;;;9.23;;
4001;SDS011;2015;48.670;9.060;2023-06-10T05:45:30;9.97;;;9.07;;
4001;SDS011;2015;48.670;9.060;2023-06-10T05:48:01;10.00;;;9.20;;
4001;SDS011;2015;48.670;9.060;2023-06-10T05:50:34;11.00;;;10.10;;
4001;SDS011;2015;48.670;9.060;2023-06-10T05:53:09;10.70;;;9.90;;
4001;SDS011;2015;48.670;9.060;2023-06-10T05:55:46;9.93;;;9.13;;
4001;SDS011;2015;48.670;9.060;2023-06-10T05:58:18;10.40;;;9.40;;
4001;SDS011;2015;48.670;9.060;2023-06-10T06:00:51;10.50;;;9.60;;
4001;SDS011;2015;48.670;9.060;2023-06-10T06:03:23;10.20;;;9.30;;
4001;SDS011;2015;48.670;9.060;2023-06-10T06:05:55;9.47;;;8.77;;
4001;SDS011;2015;48.670;9.060;2023-06-10T06:08:27;10.67;;;9.77;;
4001;SDS011;2015;48.670;9.060;2023-06-10T06:10:58;10.43;;;9.63;;
4001;SDS011;2015;48.670;9.060;2023-06-10T06:13:30;10.98;;;10.07;;
4001;SDS011;2015;48.670;9.060;2023-06-10T06:16:02;9.63;;;8.93;;
4001;SDS011;2015;48.670;9.060;2023-06-10T06:18:34;9.93;;;9.03;;
4001;SDS011;2015;48.670;9.060;2023-06-10T06:21:06;9.40;;;8.67;;
4001;SDS011;2015;48.670;9.060;2023-06-10T06:23:37;10.43;;;9.63;;
4001;SDS011;2015;48.670;9.060;2023-06-10T06:26:09;11.40;;;10.50;;
4001;SDS011;2015;48.670;9.060;2023-06-10T06:28:41;11.10;;;10.20;;
4001;SDS011;2015;48.670;9.060;2023-06-10T06:31:13;10.30;;;9.47;;
4001;SDS011;2015;48.670;9.060;2023-06-10T06:33:45;10.03;;;9.20;;
4001;SDS011;2015;48.670;9.060;2023-06-10T06:36:17;9.50;;;8.80;;
4001;SDS011;2015;48.670;9.060;2023-06-10T06:38:48;11.83;;;10.83;;
4001;SDS011;2015;48.670;9.060;2023-06-10T06:41:20;10.47;;;9.67;;
4001;SDS011;2015;48.670;9.060;2023-06-10T06:43:56;10.07;;;9.27;;
4001;SDS011;2015;48.670;9.060;2023-06-10T06:46:27;9.30;;;8.60;;
4001;SDS011;2015;48.670;9.060;2023-06-10T06:48:59;10.13;;;9.33;;
4001;SDS011;2015;48.670;9.060;2023-06-10T06:51:31;10.73;;;9.70;;
4001;SDS011;2015;48.670;9.060;2023-06-10T06:54:03;9.30;;;8.60;;
4001;SDS011;2015;48.670;9.060;2023-06-10T06:56:36;10.60;;;9.60;;
4001;SDS011;2015;48.670;9.060;2023-06-10T06:59:09;10.57;;;9.57;;
4001;SDS011;2015;48.670;9.060;2023-06-10T07:01:41;10.40;;;9.40;;
4001;SDS011;2015;48.670;9.060;2023-06-10T07:04:14;10.57;;;9.57;;
4001;SDS011;2015;48.670;9.060;2023-06-10T07:06:46;10.20;;;9.40;;
4001;SDS011;2015;48.670;9.060;2023-06-10T07:09:18;9.83;;;9.03;;
4001;SDS011;2015;48.670;9.060;2023-06-10T07:11:50;10.40;;;9.60;;
4001;SDS011;2015;48.670;9.060;2023-06-10T07:14:22;10.80;;;9.90;;
4001;SDS011;2015;48.670;9.060;2023-06-10T07:16:53;10.33;;;9.43;;
4001;SDS011;2015;48.670;9.060;2023-06-10T07:19:25;10.48;;;9.57;;
4001;SDS011;2015;48.670;9.060;2023-06-10T07:21:57;9.73;;;8.93;;
4001;SDS011;2015;48.670;9.060;2023-06-10T07:24:29;10.90;;;9.90;;
4001;SDS011;2015;48.670;9.060;2023-06-10T07:27:01;10.03;;;9.27;;
4001;SDS011;2015;48.670;9.060;2023-06-10T07:29:33;10.53;;;9.63;;
4001;SDS011;2015;48.670;9.060;2023-06-10T07:32:07;9.50;;;8.80;;
4001;SDS011;2015;48.670;9.060;2023-06-10T07:34:39;9.80;;;8.90;;
4001;SDS011;2015;48.670;9.060;2023-06-10T07:37:10;11.70;;;10.73;;
4001;SDS011;2015;48.670;9.060;2023-06-10T07:39:42;9.53;;;8.63;;
4001;SDS011;2015;48.670;9.060;2023-06-10T07:42:14;10.77;;;9.10;;
4001;SDS011;2015;48.670;9.060;2023-06-10T07:44:46;8.60;;;8.00;;
4001;SDS011;2015;48.670;9.060;2023-06-10T07:47:18;8.43;;;7.70;;
4001;SDS011;2015;48.670;9.060;2023-06-10T07:49:49;8.37;;;7.73;;
4001;SDS011;2015;48.670;9.060;2023-06-10T07:52:21;8.07;;;7.50;;
4001;SDS011;2015;48.670;9.060;2023-06-10T07:54:53;8.73;;;8.23;;
4001;SDS011;2015;48.670;9.060;2023-06-10T07:57:25;8.93;;;8.23;;
4001;SDS011;2015;48.670;9.060;2023-06-10T07:59:57;9.43;;;8.70;;
4001;SDS011;2015;48.670;9.060;2023-06-10T08:02:32;9.30;;;8.50;;
4001;SDS011;2015;48.670;9.060;2023-06-10T08:05:04;8.73;;;8.03;;
4001;SDS011;2015;48.670;9.060;2023-06-10T08:07:36;8.70;;;8.00;;
4001;SDS011;2015;48.670;9.060;2023-06-10T08:10:08;9.37;;;8.67;;
4001;SDS011;2015;48.670;9.060;2023-06-10T08:12:40;9.33;;;8.63;;
4001;SDS011;2015;48.670;9.060;2023-06-10T08:15:12;9.57;;;8.87;;
4001;SDS011;2015;48.670;9.060;2023-06-10T08:17:44;9.70;;;8.80;;
4001;SDS011;2015;48.670;9.060;2023-06-10T08:20:17;9.50;;;8.80;;
4001;SDS011;2015;48.670;9.060;2023-06-10T08:22:49;9.30;;;8.60;;
4001;SDS011;2015;48.670;9.060;2023-06-10T08:25:21;8.53;;;7.93;;
4001;SDS011;2015;48.670;9.060;2023-06-10T08:27:53;9.17;;;8.47;;
4001;SDS011;2015;48.670;9.060;2023-06-10T08:30:27;9.40;;;8.67;;
4001;SDS011;2015;48.670;9.060;2023-06-10T08:32:59;8.57;;;7.97;;
4001;SDS011;2015;48.670;9.060;2023-06-10T08:35:31;8.50;;;7.88;;
4001;SDS011;2015;48.670;9.060;2023-06-10T08:38:03;8.45;;;7.90;;
4001;SDS011;2015;48.670;9.060;2023-06-10T08:40:35;9.27;;;8.60;;
4001;SDS011;2015;48.670;9.060;2023-06-10T08:43:10;8.15;;;7.65;;
4001;SDS011;2015;48.670;9.060;2023-06-10T08:45:53;8.60;;;6.80;;
4001;SDS011;2015;48.670;9.060;2023-06-10T08:48:29;8.82;;;8.30;;
4001;SDS011;2015;48.670;9.060;2023-06-10T08:51:03;8.60;;;8.00;;
4001;SDS011;2015;48.670;9.060;2023-06-10T08:53:37;8.50;;;7.90;;
4001;SDS011;2015;48.670;9.060;2023-06-10T08:56:13;7.70;;;7.30;;
4001;SDS011;2015;48.670;9.060;2023-06-10T08:58:46;8.15;;;7.60;;
4001;SDS011;2015;48.670;9.060;2023-06-10T09:01:19;7.47;;;7.07;;
4001;SDS011;2015;48.670;9.060;2023-06-10T09:03:52;6.97;;;6.55;;
4001;SDS011;2015;48.670;9.060;2023-06-10T09:06:24;7.40;;;6.90;;
4001;SDS011;2015;48.670;9.060;2023-06-10T09:08:56;7.05;;;6.65;;
4001;SDS011;2015;48.670;9.060;2023-06-10T09:11:32;8.80;;;7.30;;
4001;SDS011;2015;48.670;9.060;2023-06-10T09:14:04;6.85;;;6.50;;
4001;SDS011;2015;48.670;9.060;2023-06-10T09:16:37;6.28;;;5.97;;
4001;SDS011;2015;48.670;9.060;2023-06-10T09:19:10;8.23;;;7.60;;
4001;SDS011;2015;48.670;9.060;2023-06-10T09:21:42;8.18;;;7.68;;
4001;SDS011;2015;48.670;9.060;2023-06-10T09:24:14;7.22;;;6.82;;
4001;SDS011;2015;48.670;9.060;2023-06-10T09:26:46;7.50;;;6.85;;
4001;SDS011;2015;48.670;9.060;2023-06-10T09:29:18;7.03;;;6.63;;
4001;SDS011;2015;48.670;9.060;2023-06-10T09:31:50;6.65;;;6.25;;
4001;SDS011;2015;48.670;9.060;2023-06-10T09:34:24;7.72;;;7.32;;
4001;SDS011;2015;48.670;9.060;2023-06-10T09:36:57;6.72;;;6.30;;
4001;SDS011;2015;48.670;9.060;2023-06-10T09:39:29;7.72;;;7.13;;
4001;SDS011;2015;48.670;9.060;2023-06-10T09:42:01;6.43;;;6.13;;
4001;SDS011;2015;48.670;9.060;2023-06-10T09:44:33;6.32;;;5.93;;
4001;SDS011;2015;48.670;9.060;2023-06-10T09:47:05;7.25;;;6.85;;
4001;SDS011;2015;48.670;9.060;2023-06-10T09:49:37;8.10;;;7.60;;
4001;SDS011;2015;48.670;9.060;2023-06-10T09:52:09;7.63;;;7.22;;
4001;SDS011;2015;48.670;9.060;2023-06-10T09:54:41;8.25;;;7.85;;
4001;SDS011;2015;48.670;9.060;2023-06-10T09:57:16;9.27;;;7.97;;
4001;SDS011;2015;48.670;9.060;2023-06-10T09:59:52;8.20;;;7.70;;
4001;SDS011;2015;48.670;9.060;2023-06-10T10:02:24;8.10;;;7.63;;
4001;SDS011;2015;48.670;9.060;2023-06-10T10:05:02;8.38;;;7.97;;
4001;SDS011;2015;48.670;9.060;2023-06-10T10:07:39;8.30;;;7.80;;
4001;SDS011;2015;48.670;9.060;2023-06-10T10:10:14;7.43;;;6.97;;
4001;SDS011;2015;48.670;9.060;2023-06-10T10:12:55;7.45;;;7.07;;
4001;SDS011;2015;48.670;9.060;2023-06-10T10:15:28;7.13;;;6.72;;
4001;SDS011;2015;48.670;9.060;2023-06-10T10:18:05;7.45;;;7.03;;
4001;SDS011;2015;48.670;9.060;2023-06-10T10:20:43;8.65;;;8.15;;
4001;SDS011;2015;48.670;9.060;2023-06-10T10:23:24;7.60;;;7.20;;
4001;SDS011;2015;48.670;9.060;2023-06-10T10:26:04;8.00;;;7.60;;
4001;SDS011;2015;48.670;9.060;2023-06-10T10:28:43;8.73;;;8.23;;
4001;SDS011;2015;48.670;9.060;2023-06-10T10:31:19;8.10;;;7.60;;
4001;SDS011;2015;48.670;9.060;2023-06-10T10:36:32;7.88;;;7.38;;
4001;SDS011;2015;48.670;9.060;2023-06-10T10:39:04;7.03;;;6.72;;
4001;SDS011;2015;48.670;9.060;2023-06-10T10:41:36;6.90;;;6.60;;
4001;SDS011;2015;48.670;9.060;2023-06-10T10:44:09;6.80;;;6.50;;
4001;SDS011;2015;48.670;9.060;2023-06-10T10:46:43;7.43;;;7.03;;
4001;SDS011;2015;48.670;9.060;2023-06-10T10:49:22;6.40;;;6.10;;
4001;SDS011;2015;48.670;9.060;2023-06-10T10:52:00;7.07;;;6.57;;
4001;SDS011;2015;48.670;9.060;2023-06-10T10:54:34;7.53;;;7.13;;
4001;SDS011;2015;48.670;9.060;2023-06-10T10:57:16;6.72;;;6.32;;
4001;SDS011;2015;48.670;9.060;2023-06-10T10:59:56;8.38;;;7.70;;
4001;SDS011;2015;48.670;9.060;2023-06-10T11:05:10;8.30;;;7.50;;
4001;SDS011;2015;48.670;9.060;2023-06-10T11:07:55;7.32;;;6.93;;
4001;SDS011;2015;48.670;9.060;2023-06-10T11:10:31;8.10;;;7.68;;
4001;SDS011;2015;48.670;9.060;2023-06-10T11:15:45;7.80;;;7.40;;
4001;SDS011;2015;48.670;9.060;2023-06-10T11:21:03;7.30;;;6.90;;
4001;SDS011;2015;48.670;9.060;2023-06-10T11:23:38;8.48;;;7.50;;
4001;SDS011;2015;48.670;9.060;2023-06-10T11:26:21;7.93;;;7.47;;
4001;SDS011;2015;48.670;9.060;2023-06-10T11:29:04;7.88;;;7.38;;
4001;SDS011;2015;48.670;9.060;2023-06-10T11:31:40;8.95;;;8.35;;
4001;SDS011;2015;48.670;9.060;2023-06-10T11:34:14;8.23;;;7.72;;
4001;SDS011;2015;48.670;9.060;2023-06-10T11:36:52;8.27;;;7.78;;
4001;SDS011;2015;48.670;9.060;2023-06-10T11:39:24;8.20;;;7.75;;
4001;SDS011;2015;48.670;9.060;2023-06-10T11:41:57;7.88;;;7.47;;
4001;SDS011;2015;48.670;9.060;2023-06-10T11:44:29;8.52;;;7.82;;
4001;SDS011;2015;48.670;9.060;2023-06-10T11:47:03;7.10;;;6.80;;
4001;SDS011;2015;48.670;9.060;2023-06-10T11:49:35;7.50;;;7.00;;
4001;SDS011;2015;48.670;9.060;2023-06-10T11:52:07;7.65;;;7.25;;
4001;SDS011;2015;48.670;9.060;2023-06-10T11:54:39;8.02;;;7.40;;
4001;SDS011;2015;48.670;9.060;2023-06-10T11:57:11;8.13;;;7.40;;
4001;SDS011;2015;48.670;9.060;2023-06-10T11:59:43;8.00;;;7.50;;
4001;SDS011;2015;48.670;9.060;2023-06-10T12:02:15;7.97;;;7.38;;
4001;SDS011;2015;48.670;9.060;2023-06-10T12:04:47;8.05;;;7.55;;
4001;SDS011;2015;48.670;9.060;2023-06-10T12:07:19;8.37;;;7.80;;
4001;SDS011;2015;48.670;9.060;2023-06-10T12:09:59;7.28;;;6.78;;
4001;SDS011;2015;48.670;9.060;2023-06-10T12:12:51;8.02;;;7.53;;
4001;SDS011;2015;48.670;9.060;2023-06-10T12:15:23;7.83;;;7.43;;
4001;SDS011;2015;48.670;9.060;2023-06-10T12:17:56;7.75;;;7.13;;
4001;SDS011;2015;48.670;9.060;2023-06-10T12:20:32;8.18;;;7.47;;
4001;SDS011;2015;48.670;9.060;2023-06-10T12:23:08;8.03;;;7.43;;
4001;SDS011;2015;48.670;9.060;2023-06-10T12:25:49;7.50;;;7.10;;
4001;SDS011;2015;48.670;9.060;2023-06-10T12:28:23;9.03;;;8.53;;
4001;SDS011;2015;48.670;9.060;2023-06-10T12:31:08;8.13;;;7.63;;
4001;SDS011;2015;48.670;9.060;2023-06-10T12:33:40;13.60;;;8.40;;
4001;SDS011;2015;48.670;9.060;2023-06-10T12:36:16;8.47;;;7.87;;
4001;SDS011;2015;48.670;9.060;2023-06-10T12:38:49;12.00;;;8.53;;
4001;SDS011;2015;48.670;9.060;2023-06-10T12:41:21;8.63;;;7.90;;
4001;SDS011;2015;48.670;9.060;2023-06-10T12:43:53;8.23;;;7.70;;
4001;SDS011;2015;48.670;9.060;2023-06-10T12:46:25;8.67;;;8.17;;
4001;SDS011;2015;48.670;9.060;2023-06-10T12:49:07;9.00;;;8.40;;
4001;SDS011;2015;48.670;9.060;2023-06-10T12:51:38;8.83;;;8.33;;
4001;SDS011;2015;48.670;9.060;2023-06-10T12:54:10;9.00;;;8.50;;
4001;SDS011;2015;48.670;9.060;2023-06-10T12:56:42;8.57;;;8.07;;
4001;SDS011;2015;48.670;9.060;2023-06-10T12:59:14;8.40;;;7.90;;
4001;SDS011;2015;48.670;9.060;2023-06-10T13:01:51;8.70;;;8.10;;
4001;SDS011;2015;48.670;9.060;2023-06-10T13:04:24;7.57;;;7.03;;
4001;SDS011;2015;48.670;9.060;2023-06-10T13:06:56;9.40;;;8.80;;
4001;SDS011;2015;48.670;9.060;2023-06-10T13:09:30;9.20;;;8.57;;
4001;SDS011;2015;48.670;9.060;2023-06-10T13:12:02;8.57;;;7.80;;
4001;SDS011;2015;48.670;9.060;2023-06-10T13:14:34;8.27;;;7.65;;
4001;SDS011;2015;48.670;9.060;2023-06-10T13:17:06;8.27;;;7.83;;
4001;SDS011;2015;48.670;9.060;2023-06-10T13:19:38;9.40;;;8.70;;
4001;SDS011;2015;48.670;9.060;2023-06-10T13:22:10;9.90;;;9.30;;
4001;SDS011;2015;48.670;9.060;2023-06-10T13:24:41;8.47;;;7.97;;
4001;SDS011;2015;48.670;9.060;2023-06-10T13:27:14;7.87;;;7.27;;
4001;SDS011;2015;48.670;9.060;2023-06-10T13:29:46;7.53;;;7.07;;
4001;SDS011;2015;48.670;9.060;2023-06-10T13:32:18;7.30;;;6.90;;
4001;SDS011;2015;48.670;9.060;2023-06-10T13:34:50;8.17;;;7.77;;
4001;SDS011;2015;48.670;9.060;2023-06-10T13:37:22;8.30;;;7.70;;
4001;SDS011;2015;48.670;9.060;2023-06-10T13:39:54;7.30;;;6.67;;
4001;SDS011;2015;48.670;9.060;2023-06-10T13:42:27;7.33;;;7.03;;
4001;SDS011;2015;48.670;9.060;2023-06-10T13:45:00;8.50;;;8.00;;
4001;SDS011;2015;48.670;9.060;2023-06-10T13:47:32;8.00;;;7.50;;
4001;SDS011;2015;48.670;9.060;2023-06-10T13:50:04;8.30;;;7.80;;
4001;SDS011;2015;48.670;9.060;2023-06-10T13:52:36;9.83;;;9.13;;
4001;SDS011;2015;48.670;9.060;2023-06-10T13:55:08;7.90;;;7.40;;
4001;SDS011;2015;48.670;9.060;2023-06-10T13:57:41;8.80;;;8.30;;
4001;SDS011;2015;48.670;9.060;2023-06-10T14:00:13;7.93;;;7.53;;
4001;SDS011;2015;48.670;9.060;2023-06-10T14:02:45;8.25;;;7.72;;
4001;SDS011;2015;48.670;9.060;2023-06-10T14:05:17;9.07;;;8.47;;
4001;SDS011;2015;48.670;9.060;2023-06-10T14:07:49;8.67;;;8.17;;
4001;SDS011;2015;48.670;9.060;2023-06-10T14:10:21;9.03;;;8.43;;
4001;SDS011;2015;48.670;9.060;2023-06-10T14:12:53;7.40;;;7.00;;
4001;SDS011;2015;48.670;9.060;2023-06-10T14:15:25;7.53;;;7.07;;
4001;SDS011;2015;48.670;9.060;2023-06-10T14:17:57;7.90;;;7.40;;
4001;SDS011;2015;48.670;9.060;2023-06-10T14:20:29;9.60;;;8.60;;
4001;SDS011;2015;48.670;9.060;2023-06-10T14:23:02;8.90;;;8.23;;
4001;SDS011;2015;48.670;9.060;2023-06-10T14:25:34;9.00;;;8.40;;
4001;SDS011;2015;48.670;9.060;2023-06-10T14:28:06;9.10;;;8.60;;
4001;SDS011;2015;48.670;9.060;2023-06-10T14:30:37;8.93;;;8.40;;
4001;SDS011;2015;48.670;9.060;2023-06-10T14:33:09;9.43;;;8.80;;
4001;SDS011;2015;48.670;9.060;2023-06-10T14:35:41;8.52;;;7.93;;
4001;SDS011;2015;48.670;9.060;2023-06-10T14:38:14;8.33;;;7.83;;
4001;SDS011;2015;48.670;9.060;2023-06-10T14:40:46;8.10;;;7.70;;
4001;SDS011;2015;48.670;9.060;2023-06-10T14:43:18;8.20;;;7.60;;
4001;SDS011;2015;48.670;9.060;2023-06-10T14:45:50;7.00;;;6.60;;
4001;SDS011;2015;48.670;9.060;2023-06-10T14:48:22;8.40;;;7.80;;
4001;SDS011;2015;48.670;9.060;2023-06-10T14:50:54;7.80;;;7.10;;
4001;SDS011;2015;48.670;9.060;2023-06-10T14:53:26;7.50;;;7.10;;
4001;SDS011;2015;48.670;9.060;2023-06-10T14:55:58;9.20;;;8.27;;
4001;SDS011;2015;48.670;9.060;2023-06-10T14:58:30;8.57;;;7.97;;
4001;SDS011;2015;48.670;9.060;2023-06-10T15:01:02;7.90;;;7.40;;
4001;SDS011;2015;48.670;9.060;2023-06-10T15:03:34;8.70;;;8.00;;
4001;SDS011;2015;48.670;9.060;2023-06-10T15:06:07;7.30;;;6.80;;
4001;SDS011;2015;48.670;9.060;2023-06-10T15:08:38;7.40;;;7.00;;
4001;SDS011;2015;48.670;9.060;2023-06-10T15:11:10;8.83;;;8.03;;
4001;SDS011;2015;48.670;9.060;2023-06-10T15:13:42;8.60;;;8.00;;
4001;SDS011;2015;48.670;9.060;2023-06-10T15:16:14;8.87;;;8.27;;
4001;SDS011;2015;48.670;9.060;2023-06-10T15:18:46;10.90;;;8.27;;
4001;SDS011;2015;48.670;9.060;2023-06-10T15:21:18;8.67;;;8.00;;
4001;SDS011;2015;48.670;9.060;2023-06-10T15:23:50;8.13;;;7.60;;
4001;SDS011;2015;48.670;9.060;2023-06-10T15:26:22;7.27;;;6.87;;
4001;SDS011;2015;48.670;9.060;2023-06-10T15:28:54;9.60;;;8.90;;
4001;SDS011;2015;48.670;9.060;2023-06-10T15:31:26;8.60;;;8.00;;
4001;SDS011;2015;48.670;9.060;2023-06-10T15:33:58;10.33;;;9.33;;
4001;SDS011;2015;48.670;9.060;2023-06-10T15:36:30;7.87;;;7.43;;
4001;SDS011;2015;48.670;9.060;2023-06-10T15:39:03;8.30;;;7.80;;
4001;SDS011;2015;48.670;9.060;2023-06-10T15:41:37;9.20;;;8.60;;
4001;SDS011;2015;48.670;9.060;2023-06-10T15:44:09;10.37;;;9.57;;
4001;SDS011;2015;48.670;9.060;2023-06-10T15:46:41;10.60;;;9.67;;
4001;SDS011;2015;48.670;9.060;2023-06-10T15:49:13;8.73;;;8.23;;
4001;SDS011;2015;48.670;9.060;2023-06-10T15:51:45;10.67;;;9.90;;
4001;SDS011;2015;48.670;9.060;2023-06-10T15:54:21;9.77;;;9.07;;